createdAt,value
2019-05-03T00:01:46.999Z,3.20
2019-05-03T00:04:18.308Z,3.00
2019-05-03T00:06:49.741Z,2.75
2019-05-03T00:09:22.571Z,3.60
2019-05-03T00:11:53.956Z,3.25
2019-05-03T00:14:25.898Z,3.33
2019-05-03T00:16:57.201Z,2.80
2019-05-03T00:19:28.608Z,2.70
2019-05-03T00:22:02.107Z,3.47
2019-05-03T00:24:34.646Z,2.90
2019-05-03T00:27:06.194Z,2.83
2019-05-03T00:29:37.466Z,2.77
2019-05-03T00:32:08.850Z,2.90
2019-05-03T00:34:46.492Z,3.30
2019-05-03T00:37:21.755Z,2.98
2019-05-03T00:40:04.611Z,3.47
2019-05-03T00:42:36.790Z,2.90
2019-05-03T00:45:09.005Z,3.83
2019-05-03T00:47:42.037Z,3.42
2019-05-03T00:50:13.543Z,3.95
2019-05-03T00:52:44.925Z,4.10
2019-05-03T00:55:19.180Z,3.98
2019-05-03T00:57:49.154Z,4.08
2019-05-03T01:00:21.771Z,3.70
2019-05-03T01:02:53.503Z,3.85
2019-05-03T01:05:24.782Z,3.72
2019-05-03T01:07:56.514Z,4.42
2019-05-03T01:10:27.790Z,4.05
2019-05-03T01:12:59.036Z,4.00
2019-05-03T01:15:42.331Z,3.90
2019-05-03T01:18:15.593Z,4.22
2019-05-03T01:33:22.583Z,4.37
2019-05-03T01:35:55.330Z,4.58
2019-05-03T01:38:31.721Z,5.47
2019-05-03T01:41:03.115Z,4.47
2019-05-03T01:43:34.759Z,4.62
2019-05-03T01:46:06.313Z,5.10
2019-05-03T01:49:03.557Z,4.22
2019-05-03T01:52:12.807Z,4.78
2019-05-03T01:54:45.309Z,4.03
2019-05-03T01:57:17.093Z,4.05
2019-05-03T01:59:48.479Z,4.47
2019-05-03T02:02:45.263Z,4.05
2019-05-03T02:05:38.085Z,3.77
2019-05-03T02:08:12.592Z,4.30
2019-05-03T02:10:45.028Z,4.10
2019-05-03T02:13:16.440Z,4.60
2019-05-03T02:15:47.794Z,4.47
2019-05-03T02:18:19.146Z,4.40
2019-05-03T02:20:52.409Z,4.60
2019-05-03T02:23:23.598Z,4.25
2019-05-03T02:25:58.971Z,4.28
2019-05-03T02:28:28.428Z,4.42
2019-05-03T02:31:03.464Z,4.75
2019-05-03T02:33:35.375Z,4.15
2019-05-03T02:36:07.122Z,4.83
2019-05-03T02:38:38.691Z,4.60
2019-05-03T02:41:13.202Z,5.08
2019-05-03T02:43:47.143Z,4.85
2019-05-03T02:46:40.461Z,4.20
2019-05-03T02:49:35.289Z,4.55
2019-05-03T02:52:06.995Z,4.78
2019-05-03T02:54:38.782Z,4.80
2019-05-03T02:57:10.290Z,4.30
2019-05-03T02:59:41.997Z,4.12
2019-05-03T03:02:15.189Z,3.98
2019-05-03T03:04:46.846Z,3.75
2019-05-03T03:07:19.062Z,3.85
2019-05-03T03:09:51.014Z,4.00
2019-05-03T03:12:25.743Z,4.60
2019-05-03T03:15:01.401Z,3.42
2019-05-03T03:17:36.502Z,3.25
2019-05-03T03:20:10.347Z,3.27
2019-05-03T03:22:46.759Z,3.20
2019-05-03T03:25:25.579Z,3.17
2019-05-03T03:27:59.548Z,3.17
2019-05-03T03:31:11.243Z,2.95
2019-05-03T03:33:47.129Z,3.10
2019-05-03T03:36:50.437Z,2.98
2019-05-03T03:38:50.333Z,3.15
2019-05-03T03:41:24.827Z,2.72
2019-05-03T03:43:57.854Z,2.67
2019-05-03T03:46:32.250Z,2.72
2019-05-03T03:49:06.851Z,2.75
2019-05-03T03:51:39.078Z,3.50
2019-05-03T03:54:15.556Z,3.22
2019-05-03T03:57:01.585Z,2.55
2019-05-03T03:59:26.576Z,2.83
2019-05-03T04:01:58.481Z,2.95
2019-05-03T04:04:31.320Z,3.37
2019-05-03T04:07:06.233Z,2.90
2019-05-03T04:09:36.938Z,2.60
2019-05-03T04:12:08.342Z,3.12
2019-05-03T04:14:59.184Z,3.02
2019-05-03T04:17:59.075Z,2.72
2019-05-03T04:20:36.527Z,3.00
2019-05-03T04:23:07.868Z,3.30
2019-05-03T04:25:40.120Z,2.95
2019-05-03T04:28:13.085Z,2.67
2019-05-03T04:30:46.069Z,2.95
2019-05-03T04:33:17.555Z,2.50
2019-05-03T04:35:49.108Z,3.02
2019-05-03T04:38:20.459Z,3.05
2019-05-03T04:40:52.113Z,2.60
2019-05-03T04:43:26.155Z,2.60
2019-05-03T04:46:09.764Z,2.87
2019-05-03T04:48:41.130Z,2.75
2019-05-03T04:51:12.584Z,2.70
2019-05-03T04:53:47.885Z,3.15
2019-05-03T04:56:19.479Z,2.35
2019-05-03T04:58:51.023Z,3.02
2019-05-03T05:01:22.623Z,2.95
2019-05-03T05:03:55.883Z,2.80
2019-05-03T05:06:27.421Z,2.55
2019-05-03T05:08:58.967Z,2.90
2019-05-03T05:11:30.729Z,2.40
2019-05-03T05:14:02.231Z,3.05
2019-05-03T05:16:35.565Z,2.50
2019-05-03T05:19:10.206Z,2.37
2019-05-03T05:21:45.685Z,2.67
2019-05-03T05:24:17.013Z,2.80
2019-05-03T05:27:00.733Z,3.50
2019-05-03T05:29:34.594Z,3.25
2019-05-03T05:32:06.291Z,2.77
2019-05-03T05:34:39.512Z,3.20
2019-05-03T05:37:11.002Z,2.65
2019-05-03T05:39:44.601Z,2.50
2019-05-03T05:42:16.684Z,2.75
2019-05-03T06:47:55.097Z,2.00
2019-05-03T06:50:28.919Z,2.40
2019-05-03T06:53:05.827Z,2.40
2019-05-03T06:55:35.221Z,2.00
2019-05-03T06:58:06.971Z,1.85
2019-05-03T07:00:57.144Z,2.05
2019-05-03T07:03:51.711Z,2.42
2019-05-03T07:06:41.004Z,2.62
2019-05-03T07:09:35.455Z,2.67
2019-05-03T07:12:06.916Z,2.22
2019-05-03T07:14:38.349Z,2.77
2019-05-03T07:17:10.032Z,2.58
2019-05-03T07:19:41.532Z,2.55
2019-05-03T07:22:15.134Z,2.65
2019-05-03T07:24:49.847Z,2.70
2019-05-03T07:27:24.752Z,2.12
2019-05-03T07:29:56.212Z,2.20
2019-05-03T07:32:27.784Z,2.42
2019-05-03T07:34:59.591Z,2.60
2019-05-03T07:37:30.985Z,2.67
2019-05-03T07:40:04.622Z,2.35
2019-05-03T07:42:35.767Z,2.50
2019-05-03T07:45:08.980Z,1.90
2019-05-03T07:47:40.625Z,2.20
2019-05-03T07:50:12.076Z,2.62
2019-05-03T07:52:45.093Z,2.60
2019-05-03T07:55:18.340Z,2.55
2019-05-03T07:57:56.053Z,2.70
2019-05-03T08:00:27.497Z,1.90
2019-05-03T08:02:59.019Z,2.10
2019-05-03T08:05:30.577Z,2.40
2019-05-03T08:08:02.026Z,2.33
2019-05-03T08:10:34.515Z,2.00
2019-05-03T08:13:06.262Z,1.90
2019-05-03T08:15:37.692Z,1.80
2019-05-03T08:18:09.162Z,2.15
2019-05-03T08:20:40.675Z,2.22
2019-05-03T08:23:24.467Z,2.05
2019-05-03T08:25:45.457Z,1.87
2019-05-03T08:28:17.015Z,2.27
2019-05-03T08:31:16.672Z,2.12
2019-05-03T08:34:07.122Z,2.33
2019-05-03T08:36:55.995Z,2.17
2019-05-03T08:39:27.375Z,1.65
2019-05-03T08:42:00.811Z,1.67
2019-05-03T08:44:32.437Z,1.92
2019-05-03T08:47:05.235Z,2.20
2019-05-03T08:49:37.911Z,2.05
2019-05-03T08:52:09.509Z,1.67
2019-05-03T08:54:41.383Z,1.62
2019-05-03T08:57:14.806Z,2.10
2019-05-03T08:59:45.874Z,1.95
2019-05-03T09:02:18.085Z,1.75
2019-05-03T09:04:50.151Z,2.05
2019-05-03T09:07:21.559Z,1.82
2019-05-03T09:09:59.044Z,1.55
2019-05-03T09:12:48.288Z,1.70
2019-05-03T09:15:21.764Z,1.75
2019-05-03T09:17:55.133Z,1.90
2019-05-03T09:20:26.445Z,1.62
2019-05-03T09:22:58.058Z,1.52
2019-05-03T09:25:29.339Z,1.82
2019-05-03T09:28:01.019Z,1.90
2019-05-03T09:30:40.095Z,1.35
2019-05-03T09:33:11.604Z,1.45
2019-05-03T09:35:45.126Z,1.60
2019-05-03T09:38:16.510Z,2.10
2019-05-03T09:40:47.789Z,1.67
2019-05-03T09:43:19.173Z,1.27
2019-05-03T09:45:50.772Z,1.35
2019-05-03T09:48:22.329Z,1.20
2019-05-03T09:50:55.454Z,1.42
2019-05-03T09:53:29.481Z,1.40
2019-05-03T09:56:01.162Z,1.60
2019-05-03T09:58:36.436Z,1.40
2019-05-03T10:01:08.348Z,1.60
2019-05-03T10:03:39.287Z,1.30
2019-05-03T10:06:10.507Z,1.70
2019-05-03T10:08:42.617Z,1.20
2019-05-03T10:11:15.471Z,1.42
2019-05-03T10:13:48.802Z,1.30
2019-05-03T10:16:22.026Z,1.20
2019-05-03T10:18:55.290Z,1.40
2019-05-03T10:21:29.042Z,1.55
2019-05-03T10:24:00.780Z,1.65
2019-05-03T10:26:32.242Z,1.30
2019-05-03T10:29:05.404Z,1.60
2019-05-03T10:31:44.951Z,1.95
2019-05-03T10:34:16.357Z,1.55
2019-05-03T10:36:47.818Z,1.50
2019-05-03T10:39:19.423Z,1.42
2019-05-03T10:41:50.761Z,1.10
2019-05-03T10:44:24.422Z,1.37
2019-05-03T10:46:55.932Z,1.60
2019-05-03T10:49:27.693Z,1.50
2019-05-03T10:52:02.584Z,1.47
2019-05-03T10:54:35.788Z,1.50
2019-05-03T10:57:12.992Z,1.45
2019-05-03T10:59:44.867Z,1.50
2019-05-03T11:02:42.891Z,1.25
2019-05-03T11:05:14.662Z,1.15
2019-05-03T11:07:46.074Z,1.50
2019-05-03T11:10:18.674Z,1.10
2019-05-03T11:12:50.048Z,1.15
2019-05-03T11:15:21.839Z,0.98
2019-05-03T11:17:54.933Z,1.32
2019-05-03T11:20:36.434Z,1.50
2019-05-03T11:23:09.556Z,1.37
2019-05-03T11:25:40.918Z,1.50
2019-05-03T11:28:25.271Z,1.37
2019-05-03T11:31:02.281Z,1.72
2019-05-03T11:33:38.090Z,1.20
2019-05-03T11:36:16.948Z,1.17
2019-05-03T11:38:48.701Z,1.37
2019-05-03T11:41:30.337Z,1.35
2019-05-03T11:43:52.899Z,1.22
2019-05-03T11:46:24.865Z,1.32
2019-05-03T11:48:56.175Z,1.70
2019-05-03T11:51:27.607Z,1.45
2019-05-03T11:53:59.003Z,1.52
2019-05-03T11:56:31.927Z,1.32
2019-05-03T11:59:05.295Z,1.50
2019-05-03T12:02:10.511Z,1.72
2019-05-03T12:04:41.929Z,1.50
2019-05-03T12:07:18.479Z,1.40
2019-05-03T12:09:49.168Z,1.22
2019-05-03T12:12:29.552Z,1.50
2019-05-03T12:15:01.028Z,1.17
2019-05-03T12:17:35.815Z,1.30
2019-05-03T12:20:09.407Z,1.52
2019-05-03T12:22:41.740Z,1.20
2019-05-03T12:25:16.284Z,1.35
2019-05-03T12:27:46.425Z,1.60
2019-05-03T12:30:17.918Z,1.52
2019-05-03T12:32:49.319Z,1.60
2019-05-03T12:35:20.795Z,2.17
2019-05-03T12:37:52.028Z,1.72
2019-05-03T12:40:25.356Z,1.70
2019-05-03T12:42:56.583Z,1.80
2019-05-03T12:45:28.113Z,1.98
2019-05-03T12:47:59.515Z,1.50
2019-05-03T12:50:32.043Z,1.30
2019-05-03T12:53:04.848Z,1.47
2019-05-03T12:55:36.359Z,1.67
2019-05-03T12:58:07.793Z,1.57
2019-05-03T13:00:58.125Z,1.87
2019-05-03T13:03:35.463Z,1.70
2019-05-03T13:06:07.428Z,2.08
2019-05-03T13:08:42.670Z,1.57
2019-05-03T13:11:14.036Z,1.70
2019-05-03T13:13:45.535Z,1.20
2019-05-03T13:16:19.236Z,1.60
2019-05-03T13:18:51.637Z,1.62
2019-05-03T13:21:25.284Z,1.50
2019-05-03T13:23:57.174Z,1.82
2019-05-03T13:26:28.484Z,1.07
2019-05-03T13:28:59.979Z,1.40
2019-05-03T13:31:31.803Z,1.37
2019-05-03T13:34:05.431Z,1.30
2019-05-03T13:36:36.428Z,1.40
2019-05-03T13:39:13.422Z,1.47
2019-05-03T13:41:45.349Z,1.67
2019-05-03T13:44:18.605Z,1.80
2019-05-03T13:46:50.987Z,1.20
2019-05-03T13:49:26.190Z,1.85
2019-05-03T14:52:57.022Z,3.42
2019-05-03T14:55:49.841Z,3.25
2019-05-03T14:58:52.755Z,4.92
2019-05-03T15:01:31.272Z,4.35
2019-05-03T15:04:02.653Z,3.27
2019-05-03T15:06:35.553Z,2.90
2019-05-03T15:09:08.928Z,3.15
2019-05-03T15:11:40.315Z,3.35
2019-05-03T15:14:11.833Z,4.17
2019-05-03T15:16:45.016Z,3.75
2019-05-03T15:19:16.578Z,4.10
2019-05-03T15:21:48.085Z,4.70
2019-05-03T15:24:20.520Z,3.67
2019-05-03T15:26:52.158Z,5.20
2019-05-03T15:29:24.843Z,3.35
2019-05-03T15:31:56.409Z,3.92
2019-05-03T15:34:28.070Z,3.47
2019-05-03T15:36:59.748Z,3.52
2019-05-03T15:39:31.821Z,3.75
2019-05-03T15:42:05.311Z,4.08
2019-05-03T15:51:08.614Z,2.55
2019-05-03T15:53:40.378Z,2.37
2019-05-03T15:56:11.713Z,2.50
2019-05-03T15:58:46.413Z,2.17
2019-05-03T16:01:16.230Z,2.20
2019-05-03T16:03:47.814Z,1.98
2019-05-03T16:06:19.374Z,2.47
2019-05-03T16:08:50.646Z,2.08
2019-05-03T16:11:21.983Z,2.50
2019-05-03T16:13:55.298Z,2.55
2019-05-03T16:16:28.035Z,2.45
2019-05-03T16:18:59.498Z,2.30
2019-05-03T16:21:31.202Z,2.90
2019-05-03T16:24:04.874Z,2.80
2019-05-03T16:26:37.982Z,2.85
2019-05-03T16:29:12.301Z,2.67
2019-05-03T16:31:45.034Z,2.92
2019-05-03T16:34:16.684Z,2.92
2019-05-03T16:36:48.528Z,2.47
2019-05-03T16:39:20.119Z,2.65
2019-05-03T16:41:52.744Z,2.70
2019-05-03T16:44:24.574Z,2.70
2019-05-03T16:46:56.063Z,3.00
2019-05-03T16:49:27.352Z,2.30
2019-05-03T16:51:58.874Z,2.98
2019-05-03T16:54:30.612Z,2.55
2019-05-03T16:57:05.618Z,3.00
2019-05-03T16:59:37.081Z,2.70
2019-05-03T17:02:11.757Z,3.08
2019-05-03T17:04:48.531Z,2.87
2019-05-03T17:07:40.365Z,2.98
2019-05-03T17:10:15.924Z,2.85
2019-05-03T17:12:48.075Z,2.77
2019-05-03T17:15:19.730Z,2.67
2019-05-03T17:17:51.289Z,2.47
2019-05-03T17:20:25.432Z,2.60
2019-05-03T17:22:58.682Z,2.80
2019-05-03T17:25:30.234Z,3.20
2019-05-03T17:28:02.459Z,2.80
2019-05-03T17:30:37.230Z,2.80
2019-05-03T17:33:07.599Z,2.85
2019-05-03T17:35:39.037Z,2.33
2019-05-03T17:38:10.576Z,2.70
2019-05-03T17:40:51.009Z,2.95
2019-05-03T17:43:27.479Z,2.58
2019-05-03T17:45:59.501Z,3.10
2019-05-03T17:48:31.168Z,3.00
2019-05-03T17:51:04.437Z,3.37
2019-05-03T17:53:55.304Z,3.35
2019-05-03T17:56:44.734Z,3.33
2019-05-03T17:59:35.308Z,3.50
2019-05-03T18:02:32.384Z,3.85
2019-05-03T18:05:25.006Z,3.65
2019-05-03T18:08:21.432Z,6.70
2019-05-03T18:11:14.840Z,13.30
2019-05-03T18:13:46.297Z,12.37
2019-05-03T18:16:19.411Z,13.50
2019-05-03T18:18:50.793Z,12.45
2019-05-03T18:21:24.342Z,12.85
2019-05-03T18:23:55.465Z,12.65
2019-05-03T18:26:26.964Z,12.20
2019-05-03T18:28:58.234Z,10.45
2019-05-03T18:31:29.774Z,10.03
2019-05-03T18:34:01.466Z,9.83
2019-05-03T18:36:34.663Z,9.75
2019-05-03T18:39:08.330Z,7.83
2019-05-03T18:41:40.154Z,7.35
2019-05-03T18:44:39.752Z,7.25
2019-05-03T18:47:15.131Z,7.00
2019-05-03T18:49:47.276Z,6.22
2019-05-03T18:52:18.887Z,5.87
2019-05-03T18:54:50.740Z,7.00
2019-05-03T18:57:22.756Z,5.60
2019-05-03T18:59:55.553Z,5.55
2019-05-03T19:02:27.247Z,5.70
2019-05-03T19:04:58.660Z,6.17
2019-05-03T19:07:42.763Z,9.15
2019-05-03T19:10:24.808Z,12.58
2019-05-03T19:13:18.784Z,16.32
2019-05-03T19:15:50.324Z,14.43
2019-05-03T19:18:29.574Z,14.18
2019-05-03T19:21:01.425Z,13.48
2019-05-03T19:23:35.343Z,13.98
2019-05-03T19:26:06.501Z,12.53
2019-05-03T19:28:37.991Z,12.58
2019-05-03T19:31:09.944Z,11.57
2019-05-03T19:33:41.486Z,10.63
2019-05-03T19:36:13.155Z,11.60
2019-05-03T19:38:44.964Z,10.20
2019-05-03T19:41:17.144Z,9.53
2019-05-03T19:43:49.864Z,8.90
2019-05-03T19:46:21.706Z,9.33
2019-05-03T19:48:54.712Z,9.43
2019-05-03T19:51:27.808Z,8.95
2019-05-03T19:53:59.413Z,8.73
2019-05-03T19:56:31.137Z,8.10
2019-05-03T19:59:06.995Z,9.38
2019-05-03T20:01:55.248Z,9.00
2019-05-03T20:04:35.222Z,7.95
2019-05-03T20:07:18.617Z,8.95
2019-05-03T20:09:50.103Z,8.98
2019-05-03T20:12:21.548Z,9.25
2019-05-03T20:14:54.630Z,9.95
2019-05-03T20:17:26.217Z,10.53
2019-05-03T20:19:59.636Z,13.25
2019-05-03T20:22:32.604Z,16.02
2019-05-03T20:25:05.666Z,26.42
2019-05-03T20:27:36.945Z,74.77
2019-05-03T20:30:08.802Z,158.55
2019-05-03T20:32:40.521Z,144.55
2019-05-03T20:35:18.841Z,121.95
2019-05-03T20:37:47.322Z,114.90
2019-05-03T20:40:20.428Z,107.80
2019-05-03T20:43:14.177Z,235.20
2019-05-03T20:46:10.302Z,317.25
2019-05-03T20:48:44.818Z,289.30
2019-05-03T20:51:18.534Z,263.75
2019-05-03T20:53:50.100Z,226.80
2019-05-03T20:56:24.516Z,214.35
2019-05-03T20:58:55.903Z,266.82
2019-05-03T21:01:27.938Z,294.35
2019-05-03T21:03:59.781Z,266.27
2019-05-03T21:06:35.513Z,228.20
2019-05-03T21:09:06.606Z,196.45
2019-05-03T21:11:39.837Z,173.47
2019-05-03T21:14:11.423Z,157.85
2019-05-03T21:17:11.252Z,139.07
2019-05-03T21:19:50.990Z,120.62
2019-05-03T21:22:30.583Z,110.72
2019-05-03T21:25:11.092Z,96.30
2019-05-03T21:27:44.922Z,89.28
2019-05-03T21:30:16.677Z,75.17
2019-05-03T21:32:48.159Z,66.22
2019-05-03T21:35:21.111Z,59.33
2019-05-03T21:37:54.438Z,56.15
2019-05-03T21:40:26.660Z,57.23
2019-05-03T21:42:58.098Z,52.17
2019-05-03T21:45:37.864Z,50.15
2019-05-03T21:48:14.582Z,42.27
2019-05-03T21:50:46.641Z,40.63
2019-05-03T21:53:18.027Z,35.83
2019-05-03T21:55:51.419Z,33.03
2019-05-03T21:58:25.042Z,28.57
2019-05-03T22:01:05.236Z,25.27
2019-05-03T22:03:38.328Z,25.02
2019-05-03T22:06:09.964Z,23.00
2019-05-03T22:08:41.771Z,20.50
2019-05-03T22:11:14.837Z,19.52
2019-05-03T22:13:48.330Z,17.50
2019-05-03T23:13:25.015Z,7.35
2019-05-03T23:15:56.590Z,8.53
2019-05-03T23:18:28.097Z,8.17
2019-05-03T23:21:24.518Z,8.20
2019-05-03T23:23:55.985Z,7.80
2019-05-03T23:26:27.641Z,8.53
2019-05-03T23:29:00.460Z,6.83
2019-05-03T23:31:34.273Z,8.48
2019-05-03T23:34:05.414Z,8.17
2019-05-03T23:36:36.806Z,7.67
2019-05-03T23:39:09.281Z,7.00
2019-05-03T23:41:40.860Z,7.45
2019-05-03T23:44:12.575Z,6.53
2019-05-03T23:46:57.076Z,7.28
2019-05-03T23:49:29.961Z,6.62
2019-05-03T23:52:06.358Z,7.22
2019-05-03T23:54:37.750Z,6.57
2019-05-03T23:57:09.028Z,6.83
2019-05-03T23:59:40.676Z,7.15
